sensor_id;sensor_type;location;lat;lon;timestamp;P1;durP1;ratioP1;P2;durP2;ratioP2
8297;SDS011;4187;42.778;23.242;2024-03-08T00:02:35;11.87;;;7.87;;
8297;SDS011;4187;42.778;23.242;2024-03-08T00:05:05;5.67;;;4.30;;
8297;SDS011;4187;42.778;23.242;2024-03-08T00:07:35;3.57;;;2.97;;
8297;SDS011;4187;42.778;23.242;2024-03-08T00:10:05;14.67;;;7.50;;
8297;SDS011;4187;42.778;23.242;2024-03-08T00:12:36;10.53;;;5.33;;
8297;SDS011;4187;42.778;23.242;2024-03-08T00:15:09;4.13;;;2.83;;
8297;SDS011;4187;42.778;23.242;2024-03-08T00:17:40;9.03;;;4.60;;
8297;SDS011;4187;42.778;23.242;2024-03-08T00:20:10;4.47;;;3.17;;
8297;SDS011;4187;42.778;23.242;2024-03-08T00:22:39;4.17;;;2.90;;
8297;SDS011;4187;42.778;23.242;2024-03-08T00:25:10;29.27;;;13.07;;
8297;SDS011;4187;42.778;23.242;2024-03-08T00:27:39;25.40;;;11.90;;
8297;SDS011;4187;42.778;23.242;2024-03-08T00:30:10;52.60;;;19.97;;
8297;SDS011;4187;42.778;23.242;2024-03-08T00:32:40;32.97;;;15.00;;
8297;SDS011;4187;42.778;23.242;2024-03-08T00:35:09;24.17;;;12.03;;
8297;SDS011;4187;42.778;23.242;2024-03-08T00:37:39;13.47;;;9.07;;
8297;SDS011;4187;42.778;23.242;2024-03-08T00:40:14;4.73;;;3.80;;
8297;SDS011;4187;42.778;23.242;2024-03-08T00:42:43;3.53;;;2.80;;
8297;SDS011;4187;42.778;23.242;2024-03-08T00:45:15;3.10;;;2.50;;
8297;SDS011;4187;42.778;23.242;2024-03-08T00:47:44;6.60;;;4.30;;
8297;SDS011;4187;42.778;23.242;2024-03-08T00:50:13;4.63;;;3.37;;
8297;SDS011;4187;42.778;23.242;2024-03-08T00:52:41;3.97;;;2.80;;
8297;SDS011;4187;42.778;23.242;2024-03-08T00:55:12;3.17;;;2.87;;
8297;SDS011;4187;42.778;23.242;2024-03-08T00:57:43;3.20;;;2.90;;
8297;SDS011;4187;42.778;23.242;2024-03-08T01:00:15;5.00;;;2.73;;
8297;SDS011;4187;42.778;23.242;2024-03-08T01:02:44;2.90;;;2.37;;
8297;SDS011;4187;42.778;23.242;2024-03-08T01:05:13;2.40;;;2.10;;
8297;SDS011;4187;42.778;23.242;2024-03-08T01:07:43;2.23;;;2.03;;
8297;SDS011;4187;42.778;23.242;2024-03-08T01:10:13;2.83;;;2.23;;
8297;SDS011;4187;42.778;23.242;2024-03-08T01:12:44;3.80;;;2.67;;
8297;SDS011;4187;42.778;23.242;2024-03-08T01:15:12;3.83;;;3.13;;
8297;SDS011;4187;42.778;23.242;2024-03-08T01:17:43;2.90;;;2.70;;
8297;SDS011;4187;42.778;23.242;2024-03-08T01:20:12;3.30;;;2.30;;
8297;SDS011;4187;42.778;23.242;2024-03-08T01:22:41;1.90;;;1.70;;
8297;SDS011;4187;42.778;23.242;2024-03-08T01:25:11;2.70;;;2.33;;
8297;SDS011;4187;42.778;23.242;2024-03-08T01:27:40;1.90;;;1.80;;
8297;SDS011;4187;42.778;23.242;2024-03-08T01:30:11;2.53;;;1.97;;
8297;SDS011;4187;42.778;23.242;2024-03-08T01:32:45;1.90;;;1.60;;
8297;SDS011;4187;42.778;23.242;2024-03-08T01:35:16;3.27;;;1.90;;
8297;SDS011;4187;42.778;23.242;2024-03-08T01:37:45;2.30;;;2.10;;
8297;SDS011;4187;42.778;23.242;2024-03-08T01:40:15;3.00;;;2.60;;
8297;SDS011;4187;42.778;23.242;2024-03-08T01:42:43;5.70;;;3.20;;
8297;SDS011;4187;42.778;23.242;2024-03-08T01:45:13;2.80;;;2.60;;
8297;SDS011;4187;42.778;23.242;2024-03-08T01:47:42;2.50;;;2.30;;
8297;SDS011;4187;42.778;23.242;2024-03-08T01:50:14;2.07;;;1.93;;
8297;SDS011;4187;42.778;23.242;2024-03-08T01:52:45;2.67;;;2.47;;
8297;SDS011;4187;42.778;23.242;2024-03-08T01:55:18;2.37;;;2.17;;
8297;SDS011;4187;42.778;23.242;2024-03-08T01:57:48;2.63;;;2.43;;
8297;SDS011;4187;42.778;23.242;2024-03-08T02:00:19;2.30;;;2.10;;
8297;SDS011;4187;42.778;23.242;2024-03-08T02:02:50;2.90;;;2.50;;
8297;SDS011;4187;42.778;23.242;2024-03-08T02:05:22;3.33;;;2.57;;
8297;SDS011;4187;42.778;23.242;2024-03-08T02:07:51;2.90;;;2.40;;
8297;SDS011;4187;42.778;23.242;2024-03-08T02:10:21;3.00;;;2.47;;
8297;SDS011;4187;42.778;23.242;2024-03-08T02:12:52;3.67;;;3.33;;
8297;SDS011;4187;42.778;23.242;2024-03-08T02:15:21;2.93;;;2.30;;
8297;SDS011;4187;42.778;23.242;2024-03-08T02:17:54;3.40;;;2.90;;
8297;SDS011;4187;42.778;23.242;2024-03-08T02:20:24;3.40;;;3.00;;
8297;SDS011;4187;42.778;23.242;2024-03-08T02:22:58;2.77;;;2.57;;
8297;SDS011;4187;42.778;23.242;2024-03-08T02:25:28;3.23;;;2.30;;
8297;SDS011;4187;42.778;23.242;2024-03-08T02:27:59;4.63;;;2.50;;
8297;SDS011;4187;42.778;23.242;2024-03-08T02:30:30;3.70;;;3.07;;
8297;SDS011;4187;42.778;23.242;2024-03-08T02:33:00;16.33;;;10.97;;
8297;SDS011;4187;42.778;23.242;2024-03-08T02:35:34;4.73;;;4.20;;
8297;SDS011;4187;42.778;23.242;2024-03-08T02:38:04;3.00;;;2.50;;
8297;SDS011;4187;42.778;23.242;2024-03-08T02:40:32;3.33;;;2.50;;
8297;SDS011;4187;42.778;23.242;2024-03-08T02:43:03;3.63;;;2.87;;
8297;SDS011;4187;42.778;23.242;2024-03-08T02:45:33;3.50;;;2.93;;
8297;SDS011;4187;42.778;23.242;2024-03-08T02:48:04;4.40;;;3.13;;
8297;SDS011;4187;42.778;23.242;2024-03-08T02:50:35;3.50;;;3.17;;
8297;SDS011;4187;42.778;23.242;2024-03-08T02:53:06;2.77;;;2.37;;
8297;SDS011;4187;42.778;23.242;2024-03-08T02:55:36;3.67;;;2.80;;
8297;SDS011;4187;42.778;23.242;2024-03-08T02:58:07;3.37;;;2.87;;
8297;SDS011;4187;42.778;23.242;2024-03-08T03:00:36;4.90;;;3.57;;
8297;SDS011;4187;42.778;23.242;2024-03-08T03:03:07;4.37;;;3.63;;
8297;SDS011;4187;42.778;23.242;2024-03-08T03:05:38;5.40;;;3.97;;
8297;SDS011;4187;42.778;23.242;2024-03-08T03:08:08;4.40;;;3.53;;
8297;SDS011;4187;42.778;23.242;2024-03-08T03:10:38;3.97;;;2.73;;
8297;SDS011;4187;42.778;23.242;2024-03-08T03:13:07;3.33;;;2.93;;
8297;SDS011;4187;42.778;23.242;2024-03-08T03:15:38;3.53;;;3.13;;
8297;SDS011;4187;42.778;23.242;2024-03-08T03:18:07;3.40;;;3.10;;
8297;SDS011;4187;42.778;23.242;2024-03-08T03:20:35;3.40;;;3.10;;
8297;SDS011;4187;42.778;23.242;2024-03-08T03:23:07;6.50;;;3.90;;
8297;SDS011;4187;42.778;23.242;2024-03-08T03:25:39;8.87;;;6.07;;
8297;SDS011;4187;42.778;23.242;2024-03-08T03:28:12;6.57;;;5.40;;
8297;SDS011;4187;42.778;23.242;2024-03-08T03:30:44;6.27;;;5.43;;
8297;SDS011;4187;42.778;23.242;2024-03-08T03:33:14;4.87;;;4.07;;
8297;SDS011;4187;42.778;23.242;2024-03-08T03:35:43;3.10;;;2.67;;
8297;SDS011;4187;42.778;23.242;2024-03-08T03:38:13;5.17;;;2.90;;
8297;SDS011;4187;42.778;23.242;2024-03-08T03:40:43;2.77;;;2.50;;
8297;SDS011;4187;42.778;23.242;2024-03-08T03:43:14;4.47;;;2.77;;
8297;SDS011;4187;42.778;23.242;2024-03-08T03:45:44;5.77;;;3.90;;
8297;SDS011;4187;42.778;23.242;2024-03-08T03:48:14;12.30;;;6.67;;
8297;SDS011;4187;42.778;23.242;2024-03-08T03:50:44;10.77;;;6.13;;
8297;SDS011;4187;42.778;23.242;2024-03-08T03:53:15;6.40;;;3.73;;
8297;SDS011;4187;42.778;23.242;2024-03-08T03:55:44;5.40;;;3.60;;
8297;SDS011;4187;42.778;23.242;2024-03-08T03:58:14;4.67;;;3.30;;
8297;SDS011;4187;42.778;23.242;2024-03-08T04:00:47;8.60;;;5.30;;
8297;SDS011;4187;42.778;23.242;2024-03-08T04:03:18;8.07;;;5.57;;
8297;SDS011;4187;42.778;23.242;2024-03-08T04:05:47;7.70;;;5.30;;
8297;SDS011;4187;42.778;23.242;2024-03-08T04:08:17;4.83;;;3.90;;
8297;SDS011;4187;42.778;23.242;2024-03-08T04:10:46;4.03;;;3.63;;
8297;SDS011;4187;42.778;23.242;2024-03-08T04:13:15;4.40;;;3.67;;
8297;SDS011;4187;42.778;23.242;2024-03-08T04:15:46;4.43;;;3.63;;
8297;SDS011;4187;42.778;23.242;2024-03-08T04:18:15;4.57;;;3.53;;
8297;SDS011;4187;42.778;23.242;2024-03-08T04:20:44;8.93;;;6.80;;
8297;SDS011;4187;42.778;23.242;2024-03-08T04:23:13;19.67;;;12.70;;
8297;SDS011;4187;42.778;23.242;2024-03-08T04:25:46;24.63;;;16.10;;
8297;SDS011;4187;42.778;23.242;2024-03-08T04:28:14;15.50;;;10.13;;
8297;SDS011;4187;42.778;23.242;2024-03-08T04:30:45;10.30;;;6.03;;
8297;SDS011;4187;42.778;23.242;2024-03-08T04:33:16;3.63;;;3.27;;
8297;SDS011;4187;42.778;23.242;2024-03-08T04:35:46;6.40;;;5.00;;
8297;SDS011;4187;42.778;23.242;2024-03-08T04:38:16;8.07;;;5.70;;
8297;SDS011;4187;42.778;23.242;2024-03-08T04:40:51;6.20;;;4.13;;
8297;SDS011;4187;42.778;23.242;2024-03-08T04:43:21;2.00;;;1.70;;
8297;SDS011;4187;42.778;23.242;2024-03-08T04:45:52;17.03;;;11.60;;
8297;SDS011;4187;42.778;23.242;2024-03-08T04:48:21;31.50;;;20.23;;
8297;SDS011;4187;42.778;23.242;2024-03-08T04:50:50;38.07;;;23.60;;
8297;SDS011;4187;42.778;23.242;2024-03-08T04:53:18;12.93;;;10.03;;
8297;SDS011;4187;42.778;23.242;2024-03-08T04:55:49;13.37;;;10.73;;
8297;SDS011;4187;42.778;23.242;2024-03-08T04:58:19;11.33;;;7.23;;
8297;SDS011;4187;42.778;23.242;2024-03-08T05:00:48;4.53;;;4.10;;
8297;SDS011;4187;42.778;23.242;2024-03-08T05:03:18;6.57;;;4.97;;
8297;SDS011;4187;42.778;23.242;2024-03-08T05:05:53;6.90;;;5.17;;
8297;SDS011;4187;42.778;23.242;2024-03-08T05:08:21;4.43;;;3.90;;
8297;SDS011;4187;42.778;23.242;2024-03-08T05:10:50;4.80;;;3.47;;
8297;SDS011;4187;42.778;23.242;2024-03-08T05:13:18;2.83;;;2.27;;
8297;SDS011;4187;42.778;23.242;2024-03-08T05:15:48;3.37;;;3.07;;
8297;SDS011;4187;42.778;23.242;2024-03-08T05:18:17;3.43;;;3.07;;
8297;SDS011;4187;42.778;23.242;2024-03-08T05:20:47;3.77;;;2.77;;
8297;SDS011;4187;42.778;23.242;2024-03-08T05:23:15;4.00;;;2.90;;
8297;SDS011;4187;42.778;23.242;2024-03-08T05:25:45;3.90;;;3.03;;
8297;SDS011;4187;42.778;23.242;2024-03-08T05:28:15;3.60;;;2.87;;
8297;SDS011;4187;42.778;23.242;2024-03-08T05:30:45;3.77;;;3.00;;
8297;SDS011;4187;42.778;23.242;2024-03-08T05:33:14;5.20;;;3.67;;
8297;SDS011;4187;42.778;23.242;2024-03-08T05:35:45;4.50;;;3.30;;
8297;SDS011;4187;42.778;23.242;2024-03-08T05:38:14;2.80;;;2.53;;
8297;SDS011;4187;42.778;23.242;2024-03-08T05:40:43;3.00;;;2.50;;
8297;SDS011;4187;42.778;23.242;2024-03-08T05:43:12;3.67;;;2.80;;
8297;SDS011;4187;42.778;23.242;2024-03-08T05:45:45;3.73;;;3.00;;
8297;SDS011;4187;42.778;23.242;2024-03-08T05:48:13;4.93;;;4.30;;
8297;SDS011;4187;42.778;23.242;2024-03-08T05:50:41;6.80;;;5.23;;
8297;SDS011;4187;42.778;23.242;2024-03-08T05:53:12;4.33;;;3.00;;
8297;SDS011;4187;42.778;23.242;2024-03-08T05:55:40;3.43;;;2.73;;
8297;SDS011;4187;42.778;23.242;2024-03-08T05:58:09;3.77;;;2.50;;
8297;SDS011;4187;42.778;23.242;2024-03-08T06:00:43;3.60;;;2.73;;
8297;SDS011;4187;42.778;23.242;2024-03-08T06:03:11;4.73;;;3.50;;
8297;SDS011;4187;42.778;23.242;2024-03-08T06:05:40;4.57;;;3.90;;
8297;SDS011;4187;42.778;23.242;2024-03-08T06:08:08;4.23;;;3.50;;
8297;SDS011;4187;42.778;23.242;2024-03-08T06:10:37;3.33;;;2.73;;
8297;SDS011;4187;42.778;23.242;2024-03-08T06:13:05;4.20;;;2.90;;
8297;SDS011;4187;42.778;23.242;2024-03-08T06:15:34;5.23;;;3.77;;
8297;SDS011;4187;42.778;23.242;2024-03-08T06:18:04;3.80;;;3.20;;
8297;SDS011;4187;42.778;23.242;2024-03-08T06:20:36;3.93;;;3.33;;
8297;SDS011;4187;42.778;23.242;2024-03-08T06:23:03;4.37;;;3.50;;
8297;SDS011;4187;42.778;23.242;2024-03-08T06:25:32;6.13;;;4.60;;
8297;SDS011;4187;42.778;23.242;2024-03-08T06:28:00;7.20;;;4.63;;
8297;SDS011;4187;42.778;23.242;2024-03-08T06:30:34;5.93;;;4.20;;
8297;SDS011;4187;42.778;23.242;2024-03-08T06:33:05;4.60;;;3.77;;
8297;SDS011;4187;42.778;23.242;2024-03-08T06:35:33;4.73;;;4.27;;
8297;SDS011;4187;42.778;23.242;2024-03-08T06:38:03;6.67;;;4.50;;
8297;SDS011;4187;42.778;23.242;2024-03-08T06:40:35;5.33;;;4.07;;
8297;SDS011;4187;42.778;23.242;2024-03-08T06:43:04;4.37;;;3.97;;
8297;SDS011;4187;42.778;23.242;2024-03-08T06:45:33;4.93;;;4.17;;
8297;SDS011;4187;42.778;23.242;2024-03-08T06:48:02;5.80;;;4.53;;
8297;SDS011;4187;42.778;23.242;2024-03-08T06:50:36;6.60;;;4.27;;
8297;SDS011;4187;42.778;23.242;2024-03-08T06:53:04;5.77;;;4.40;;
8297;SDS011;4187;42.778;23.242;2024-03-08T06:55:32;5.37;;;4.40;;
8297;SDS011;4187;42.778;23.242;2024-03-08T06:58:00;5.47;;;4.23;;
8297;SDS011;4187;42.778;23.242;2024-03-08T07:00:30;6.13;;;4.20;;
8297;SDS011;4187;42.778;23.242;2024-03-08T07:02:58;4.90;;;4.00;;
8297;SDS011;4187;42.778;23.242;2024-03-08T07:05:28;4.13;;;3.73;;
8297;SDS011;4187;42.778;23.242;2024-03-08T07:08:00;5.73;;;3.63;;
8297;SDS011;4187;42.778;23.242;2024-03-08T07:10:28;4.37;;;3.97;;
8297;SDS011;4187;42.778;23.242;2024-03-08T07:12:59;5.50;;;3.63;;
8297;SDS011;4187;42.778;23.242;2024-03-08T07:15:28;3.50;;;3.10;;
8297;SDS011;4187;42.778;23.242;2024-03-08T07:17:57;10.60;;;5.80;;
8297;SDS011;4187;42.778;23.242;2024-03-08T07:20:27;6.03;;;5.40;;
8297;SDS011;4187;42.778;23.242;2024-03-08T07:22:55;6.30;;;5.07;;
8297;SDS011;4187;42.778;23.242;2024-03-08T07:25:26;5.33;;;4.83;;
8297;SDS011;4187;42.778;23.242;2024-03-08T07:27:57;4.20;;;3.80;;
8297;SDS011;4187;42.778;23.242;2024-03-08T07:30:25;18.70;;;13.70;;
8297;SDS011;4187;42.778;23.242;2024-03-08T07:33:12;9.00;;;6.07;;
8297;SDS011;4187;42.778;23.242;2024-03-08T07:35:40;16.40;;;11.60;;
8297;SDS011;4187;42.778;23.242;2024-03-08T07:38:12;6.77;;;5.97;;
8297;SDS011;4187;42.778;23.242;2024-03-08T07:40:43;4.67;;;4.17;;
8297;SDS011;4187;42.778;23.242;2024-03-08T07:43:11;4.70;;;4.30;;
8297;SDS011;4187;42.778;23.242;2024-03-08T07:45:39;6.30;;;4.50;;
8297;SDS011;4187;42.778;23.242;2024-03-08T07:48:09;4.43;;;3.43;;
8297;SDS011;4187;42.778;23.242;2024-03-08T07:50:38;5.07;;;3.77;;
8297;SDS011;4187;42.778;23.242;2024-03-08T07:53:07;3.40;;;3.03;;
8297;SDS011;4187;42.778;23.242;2024-03-08T07:55:36;4.70;;;3.57;;
8297;SDS011;4187;42.778;23.242;2024-03-08T07:58:07;3.90;;;3.20;;
8297;SDS011;4187;42.778;23.242;2024-03-08T08:00:36;5.20;;;4.00;;
8297;SDS011;4187;42.778;23.242;2024-03-08T08:03:04;4.70;;;3.93;;
8297;SDS011;4187;42.778;23.242;2024-03-08T08:05:33;6.27;;;4.27;;
8297;SDS011;4187;42.778;23.242;2024-03-08T08:08:04;3.87;;;3.23;;
8297;SDS011;4187;42.778;23.242;2024-03-08T08:10:33;3.70;;;3.27;;
8297;SDS011;4187;42.778;23.242;2024-03-08T08:13:03;3.93;;;3.23;;
8297;SDS011;4187;42.778;23.242;2024-03-08T08:15:33;3.90;;;3.27;;
8297;SDS011;4187;42.778;23.242;2024-03-08T08:18:02;3.63;;;2.70;;
8297;SDS011;4187;42.778;23.242;2024-03-08T08:20:30;3.43;;;3.00;;
8297;SDS011;4187;42.778;23.242;2024-03-08T08:22:58;4.00;;;2.90;;
8297;SDS011;4187;42.778;23.242;2024-03-08T08:25:26;3.73;;;2.60;;
8297;SDS011;4187;42.778;23.242;2024-03-08T08:27:53;3.30;;;2.67;;
8297;SDS011;4187;42.778;23.242;2024-03-08T08:30:24;4.20;;;3.50;;
8297;SDS011;4187;42.778;23.242;2024-03-08T08:32:52;3.90;;;3.50;;
8297;SDS011;4187;42.778;23.242;2024-03-08T08:35:20;3.00;;;2.70;;
8297;SDS011;4187;42.778;23.242;2024-03-08T08:37:49;4.13;;;3.72;;
8297;SDS011;4187;42.778;23.242;2024-03-08T08:40:18;3.47;;;2.90;;
8297;SDS011;4187;42.778;23.242;2024-03-08T08:42:48;3.40;;;3.10;;
8297;SDS011;4187;42.778;23.242;2024-03-08T08:45:16;3.40;;;3.08;;
8297;SDS011;4187;42.778;23.242;2024-03-08T08:47:46;3.00;;;2.70;;
8297;SDS011;4187;42.778;23.242;2024-03-08T08:50:16;2.90;;;2.60;;
8297;SDS011;4187;42.778;23.242;2024-03-08T08:52:48;4.53;;;2.53;;
8297;SDS011;4187;42.778;23.242;2024-03-08T08:55:18;2.70;;;2.50;;
8297;SDS011;4187;42.778;23.242;2024-03-08T08:57:50;2.28;;;1.85;;
8297;SDS011;4187;42.778;23.242;2024-03-08T09:00:18;2.95;;;2.20;;
8297;SDS011;4187;42.778;23.242;2024-03-08T09:02:48;2.20;;;2.00;;
8297;SDS011;4187;42.778;23.242;2024-03-08T09:05:16;1.88;;;1.73;;
8297;SDS011;4187;42.778;23.242;2024-03-08T09:07:47;6.45;;;1.83;;
8297;SDS011;4187;42.778;23.242;2024-03-08T09:10:15;1.65;;;1.52;;
8297;SDS011;4187;42.778;23.242;2024-03-08T09:12:44;2.08;;;1.83;;
8297;SDS011;4187;42.778;23.242;2024-03-08T09:15:13;1.92;;;1.65;;
8297;SDS011;4187;42.778;23.242;2024-03-08T09:17:45;3.17;;;2.15;;
8297;SDS011;4187;42.778;23.242;2024-03-08T09:20:16;2.38;;;1.95;;
8297;SDS011;4187;42.778;23.242;2024-03-08T09:22:46;1.88;;;1.67;;
8297;SDS011;4187;42.778;23.242;2024-03-08T09:25:14;1.65;;;1.52;;
8297;SDS011;4187;42.778;23.242;2024-03-08T09:27:43;2.15;;;1.83;;
8297;SDS011;4187;42.778;23.242;2024-03-08T09:30:11;2.10;;;1.83;;
8297;SDS011;4187;42.778;23.242;2024-03-08T09:32:41;3.30;;;2.00;;
8297;SDS011;4187;42.778;23.242;2024-03-08T09:35:11;5.38;;;1.95;;
8297;SDS011;4187;42.778;23.242;2024-03-08T09:37:39;3.00;;;2.70;;
8297;SDS011;4187;42.778;23.242;2024-03-08T09:40:08;4.70;;;3.83;;
8297;SDS011;4187;42.778;23.242;2024-03-08T09:42:41;4.18;;;2.58;;
8297;SDS011;4187;42.778;23.242;2024-03-08T09:45:09;7.60;;;5.53;;
8297;SDS011;4187;42.778;23.242;2024-03-08T09:47:37;2.53;;;2.33;;
8297;SDS011;4187;42.778;23.242;2024-03-08T09:50:09;2.30;;;2.10;;
8297;SDS011;4187;42.778;23.242;2024-03-08T09:52:39;7.50;;;6.03;;
8297;SDS011;4187;42.778;23.242;2024-03-08T09:55:09;2.03;;;1.60;;
8297;SDS011;4187;42.778;23.242;2024-03-08T09:57:38;3.65;;;2.60;;
8297;SDS011;4187;42.778;23.242;2024-03-08T10:00:22;2.03;;;1.75;;
8297;SDS011;4187;42.778;23.242;2024-03-08T10:02:50;1.77;;;1.60;;
8297;SDS011;4187;42.778;23.242;2024-03-08T10:05:21;2.42;;;1.92;;
8297;SDS011;4187;42.778;23.242;2024-03-08T10:07:49;2.30;;;2.05;;
8297;SDS011;4187;42.778;23.242;2024-03-08T10:10:19;2.38;;;1.88;;
8297;SDS011;4187;42.778;23.242;2024-03-08T10:12:47;1.40;;;1.30;;
8297;SDS011;4187;42.778;23.242;2024-03-08T10:15:16;1.88;;;1.77;;
8297;SDS011;4187;42.778;23.242;2024-03-08T10:17:45;1.63;;;1.52;;
8297;SDS011;4187;42.778;23.242;2024-03-08T10:20:14;2.67;;;2.20;;
8297;SDS011;4187;42.778;23.242;2024-03-08T10:22:44;2.33;;;1.63;;
8297;SDS011;4187;42.778;23.242;2024-03-08T10:25:14;1.48;;;1.38;;
8297;SDS011;4187;42.778;23.242;2024-03-08T10:27:43;1.73;;;1.63;;
8297;SDS011;4187;42.778;23.242;2024-03-08T10:30:12;1.60;;;1.30;;
8297;SDS011;4187;42.778;23.242;2024-03-08T10:32:45;1.30;;;1.20;;
8297;SDS011;4187;42.778;23.242;2024-03-08T10:35:12;1.70;;;1.50;;
8297;SDS011;4187;42.778;23.242;2024-03-08T10:37:45;1.85;;;1.35;;
8297;SDS011;4187;42.778;23.242;2024-03-08T10:40:16;3.35;;;1.67;;
8297;SDS011;4187;42.778;23.242;2024-03-08T10:42:48;1.80;;;1.70;;
8297;SDS011;4187;42.778;23.242;2024-03-08T10:45:23;1.65;;;1.45;;
8297;SDS011;4187;42.778;23.242;2024-03-08T10:48:08;1.67;;;1.42;;
8297;SDS011;4187;42.778;23.242;2024-03-08T10:50:48;1.70;;;1.35;;
8297;SDS011;4187;42.778;23.242;2024-03-08T10:53:20;1.85;;;1.75;;
8297;SDS011;4187;42.778;23.242;2024-03-08T10:55:51;2.05;;;1.65;;
8297;SDS011;4187;42.778;23.242;2024-03-08T10:58:21;2.25;;;1.77;;
8297;SDS011;4187;42.778;23.242;2024-03-08T11:00:52;1.92;;;1.40;;
8297;SDS011;4187;42.778;23.242;2024-03-08T11:06:14;1.60;;;1.50;;
8297;SDS011;4187;42.778;23.242;2024-03-08T11:08:45;1.75;;;1.65;;
8297;SDS011;4187;42.778;23.242;2024-03-08T11:11:26;2.13;;;1.67;;
8297;SDS011;4187;42.778;23.242;2024-03-08T11:13:57;3.05;;;1.40;;
8297;SDS011;4187;42.778;23.242;2024-03-08T11:16:39;1.60;;;1.50;;
8297;SDS011;4187;42.778;23.242;2024-03-08T11:19:24;1.55;;;1.33;;
8297;SDS011;4187;42.778;23.242;2024-03-08T11:22:02;1.73;;;1.63;;
8297;SDS011;4187;42.778;23.242;2024-03-08T11:24:40;1.88;;;1.58;;
8297;SDS011;4187;42.778;23.242;2024-03-08T11:27:11;1.70;;;1.60;;
8297;SDS011;4187;42.778;23.242;2024-03-08T11:29:39;1.98;;;1.67;;
8297;SDS011;4187;42.778;23.242;2024-03-08T11:32:08;1.75;;;1.35;;
8297;SDS011;4187;42.778;23.242;2024-03-08T11:34:39;2.40;;;2.00;;
8297;SDS011;4187;42.778;23.242;2024-03-08T11:37:13;1.48;;;1.38;;
8297;SDS011;4187;42.778;23.242;2024-03-08T11:39:48;2.00;;;1.42;;
8297;SDS011;4187;42.778;23.242;2024-03-08T11:42:18;2.00;;;1.60;;
8297;SDS011;4187;42.778;23.242;2024-03-08T11:44:46;2.63;;;1.15;;
8297;SDS011;4187;42.778;23.242;2024-03-08T11:47:16;2.42;;;2.05;;
8297;SDS011;4187;42.778;23.242;2024-03-08T11:49:44;1.52;;;1.42;;
8297;SDS011;4187;42.778;23.242;2024-03-08T11:52:13;1.67;;;1.50;;
8297;SDS011;4187;42.778;23.242;2024-03-08T11:54:41;2.13;;;1.50;;
8297;SDS011;4187;42.778;23.242;2024-03-08T11:57:11;1.98;;;1.77;;
8297;SDS011;4187;42.778;23.242;2024-03-08T11:59:38;1.63;;;1.50;;
8297;SDS011;4187;42.778;23.242;2024-03-08T12:02:05;2.25;;;1.90;;
8297;SDS011;4187;42.778;23.242;2024-03-08T12:04:35;1.88;;;1.67;;
8297;SDS011;4187;42.778;23.242;2024-03-08T12:07:02;2.05;;;1.85;;
8297;SDS011;4187;42.778;23.242;2024-03-08T12:09:34;4.50;;;3.13;;
8297;SDS011;4187;42.778;23.242;2024-03-08T12:12:02;1.98;;;1.60;;
8297;SDS011;4187;42.778;23.242;2024-03-08T12:14:32;1.70;;;1.60;;
8297;SDS011;4187;42.778;23.242;2024-03-08T12:17:00;1.58;;;1.48;;
8297;SDS011;4187;42.778;23.242;2024-03-08T12:19:27;1.85;;;1.55;;
8297;SDS011;4187;42.778;23.242;2024-03-08T12:21:54;1.73;;;1.50;;
8297;SDS011;4187;42.778;23.242;2024-03-08T12:24:22;1.63;;;1.52;;
8297;SDS011;4187;42.778;23.242;2024-03-08T12:26:49;1.60;;;1.30;;
8297;SDS011;4187;42.778;23.242;2024-03-08T12:29:18;2.17;;;1.75;;
8297;SDS011;4187;42.778;23.242;2024-03-08T12:31:50;3.05;;;2.33;;
8297;SDS011;4187;42.778;23.242;2024-03-08T12:34:18;3.10;;;1.80;;
8297;SDS011;4187;42.778;23.242;2024-03-08T12:36:46;2.78;;;1.85;;
8297;SDS011;4187;42.778;23.242;2024-03-08T12:39:15;2.90;;;2.13;;
8297;SDS011;4187;42.778;23.242;2024-03-08T12:41:43;3.60;;;2.10;;
8297;SDS011;4187;42.778;23.242;2024-03-08T12:44:12;1.88;;;1.67;;
8297;SDS011;4187;42.778;23.242;2024-03-08T12:46:40;5.72;;;3.50;;
8297;SDS011;4187;42.778;23.242;2024-03-08T12:49:10;4.25;;;3.00;;
8297;SDS011;4187;42.778;23.242;2024-03-08T12:51:38;4.03;;;2.20;;
8297;SDS011;4187;42.778;23.242;2024-03-08T12:54:06;5.07;;;2.63;;
8297;SDS011;4187;42.778;23.242;2024-03-08T12:56:34;3.30;;;2.40;;
8297;SDS011;4187;42.778;23.242;2024-03-08T12:59:03;5.22;;;1.95;;
8297;SDS011;4187;42.778;23.242;2024-03-08T13:01:31;1.95;;;1.42;;
8297;SDS011;4187;42.778;23.242;2024-03-08T13:03:58;2.08;;;1.65;;
8297;SDS011;4187;42.778;23.242;2024-03-08T13:06:28;2.85;;;2.10;;
8297;SDS011;4187;42.778;23.242;2024-03-08T13:08:56;1.70;;;1.40;;
8297;SDS011;4187;42.778;23.242;2024-03-08T13:11:26;3.38;;;1.92;;
8297;SDS011;4187;42.778;23.242;2024-03-08T13:13:56;2.10;;;1.58;;
8297;SDS011;4187;42.778;23.242;2024-03-08T13:16:26;1.33;;;1.23;;
8297;SDS011;4187;42.778;23.242;2024-03-08T13:18:55;4.45;;;2.92;;
8297;SDS011;4187;42.778;23.242;2024-03-08T13:21:23;5.57;;;3.53;;
8297;SDS011;4187;42.778;23.242;2024-03-08T13:23:57;3.70;;;2.45;;
8297;SDS011;4187;42.778;23.242;2024-03-08T13:26:26;4.28;;;2.83;;
8297;SDS011;4187;42.778;23.242;2024-03-08T13:28:57;2.40;;;2.05;;
8297;SDS011;4187;42.778;23.242;2024-03-08T13:31:26;2.90;;;1.77;;
8297;SDS011;4187;42.778;23.242;2024-03-08T13:33:56;3.55;;;2.72;;
8297;SDS011;4187;42.778;23.242;2024-03-08T13:36:25;1.58;;;1.48;;
8297;SDS011;4187;42.778;23.242;2024-03-08T13:39:00;1.80;;;1.70;;
8297;SDS011;4187;42.778;23.242;2024-03-08T13:41:36;4.43;;;3.88;;
8297;SDS011;4187;42.778;23.242;2024-03-08T13:44:05;6.85;;;3.92;;
8297;SDS011;4187;42.778;23.242;2024-03-08T13:46:34;3.67;;;3.10;;
8297;SDS011;4187;42.778;23.242;2024-03-08T13:49:03;3.45;;;2.10;;
8297;SDS011;4187;42.778;23.242;2024-03-08T13:51:34;4.88;;;2.33;;
8297;SDS011;4187;42.778;23.242;2024-03-08T13:54:05;5.55;;;3.00;;
8297;SDS011;4187;42.778;23.242;2024-03-08T13:56:33;4.88;;;2.60;;
8297;SDS011;4187;42.778;23.242;2024-03-08T13:59:02;8.07;;;3.70;;
8297;SDS011;4187;42.778;23.242;2024-03-08T14:01:31;3.15;;;2.40;;
8297;SDS011;4187;42.778;23.242;2024-03-08T14:04:01;3.97;;;2.55;;
8297;SDS011;4187;42.778;23.242;2024-03-08T14:06:29;3.63;;;2.08;;
8297;SDS011;4187;42.778;23.242;2024-03-08T14:08:57;4.40;;;3.13;;
8297;SDS011;4187;42.778;23.242;2024-03-08T14:11:29;2.35;;;1.90;;
8297;SDS011;4187;42.778;23.242;2024-03-08T14:13:59;3.47;;;2.70;;
8297;SDS011;4187;42.778;23.242;2024-03-08T14:16:28;2.67;;;2.13;;
8297;SDS011;4187;42.778;23.242;2024-03-08T14:18:57;3.05;;;2.20;;
8297;SDS011;4187;42.778;23.242;2024-03-08T14:21:31;2.45;;;1.67;;
8297;SDS011;4187;42.778;23.242;2024-03-08T14:23:59;7.13;;;4.20;;
8297;SDS011;4187;42.778;23.242;2024-03-08T14:26:29;3.33;;;2.47;;
8297;SDS011;4187;42.778;23.242;2024-03-08T14:28:57;2.10;;;1.90;;
8297;SDS011;4187;42.778;23.242;2024-03-08T14:31:25;3.28;;;2.75;;
8297;SDS011;4187;42.778;23.242;2024-03-08T14:33:55;3.15;;;2.40;;
8297;SDS011;4187;42.778;23.242;2024-03-08T14:36:24;4.45;;;2.20;;
8297;SDS011;4187;42.778;23.242;2024-03-08T14:38:52;5.65;;;3.20;;
8297;SDS011;4187;42.778;23.242;2024-03-08T14:41:20;4.57;;;3.15;;
8297;SDS011;4187;42.778;23.242;2024-03-08T14:43:50;2.58;;;2.38;;
8297;SDS011;4187;42.778;23.242;2024-03-08T14:46:19;3.83;;;2.63;;
8297;SDS011;4187;42.778;23.242;2024-03-08T14:48:49;3.78;;;3.20;;
8297;SDS011;4187;42.778;23.242;2024-03-08T14:51:18;2.92;;;2.63;;
8297;SDS011;4187;42.778;23.242;2024-03-08T14:53:47;3.67;;;3.15;;
8297;SDS011;4187;42.778;23.242;2024-03-08T14:56:16;3.60;;;3.20;;
8297;SDS011;4187;42.778;23.242;2024-03-08T14:58:44;3.15;;;2.78;;
8297;SDS011;4187;42.778;23.242;2024-03-08T15:01:16;3.72;;;2.90;;
8297;SDS011;4187;42.778;23.242;2024-03-08T15:03:48;4.53;;;3.25;;
8297;SDS011;4187;42.778;23.242;2024-03-08T15:06:16;6.07;;;5.05;;
8297;SDS011;4187;42.778;23.242;2024-03-08T15:08:46;6.47;;;5.53;;
8297;SDS011;4187;42.778;23.242;2024-03-08T15:11:14;3.85;;;3.22;;
8297;SDS011;4187;42.778;23.242;2024-03-08T15:13:47;5.88;;;3.97;;
8297;SDS011;4187;42.778;23.242;2024-03-08T15:16:18;4.85;;;3.95;;
8297;SDS011;4187;42.778;23.242;2024-03-08T15:18:49;6.70;;;6.00;;
8297;SDS011;4187;42.778;23.242;2024-03-08T15:21:19;12.30;;;10.30;;